createdAt,value
2017-10-08T00:01:33.206Z,24.50
2017-10-08T00:04:27.343Z,28.80
2017-10-08T00:05:28.034Z,25.70
2017-10-08T00:06:27.564Z,24.80
2017-10-08T00:07:50.933Z,21.10
2017-10-08T00:08:50.901Z,21.20
2017-10-08T00:09:51.151Z,25.70
2017-10-08T00:10:50.579Z,29.40
2017-10-08T00:12:13.569Z,21.50
2017-10-08T00:13:14.200Z,25.10
2017-10-08T00:14:36.374Z,29.00
2017-10-08T00:16:21.553Z,26.40
2017-10-08T00:17:22.298Z,31.30
2017-10-08T00:19:06.614Z,26.90
2017-10-08T00:20:07.251Z,26.00
2017-10-08T00:21:29.525Z,25.50
2017-10-08T00:22:30.158Z,25.80
2017-10-08T00:23:52.333Z,27.30
2017-10-08T00:25:37.329Z,24.40
2017-10-08T00:27:21.964Z,25.60
2017-10-08T00:28:52.880Z,23.60
2017-10-08T00:30:37.656Z,23.50
2017-10-08T00:31:38.086Z,27.00
2017-10-08T00:32:38.399Z,28.90
2017-10-08T00:33:38.060Z,25.10
2017-10-08T00:34:39.137Z,32.90
2017-10-08T00:35:38.450Z,34.00
2017-10-08T00:36:59.894Z,30.00
2017-10-08T00:38:22.843Z,33.60
2017-10-08T00:39:45.519Z,31.90
2017-10-08T00:40:45.801Z,27.10
2017-10-08T00:41:46.138Z,36.90
2017-10-08T00:42:45.888Z,24.40
2017-10-08T00:43:46.155Z,30.70
2017-10-08T00:44:46.626Z,28.00
2017-10-08T00:45:46.269Z,28.10
2017-10-08T00:46:45.523Z,33.60
2017-10-08T00:47:45.956Z,29.00
2017-10-08T00:48:46.424Z,28.30
2017-10-08T00:49:45.622Z,32.70
2017-10-08T00:50:46.454Z,30.70
2017-10-08T00:52:07.717Z,37.60
2017-10-08T00:53:08.012Z,30.50
2017-10-08T00:54:08.141Z,28.00
2017-10-08T00:55:53.114Z,25.50
2017-10-08T00:57:15.770Z,28.10
2017-10-08T00:58:15.976Z,28.50
2017-10-08T00:59:39.339Z,28.20
2017-10-08T01:00:39.749Z,28.50
2017-10-08T01:01:40.607Z,30.70
2017-10-08T01:03:24.560Z,38.80
2017-10-08T01:04:25.048Z,29.50
2017-10-08T01:05:24.403Z,27.60
2017-10-08T01:06:24.963Z,30.00
2017-10-08T01:07:24.638Z,36.90
2017-10-08T01:08:24.920Z,33.80
2017-10-08T01:11:16.454Z,34.80
2017-10-08T01:12:17.274Z,30.50
2017-10-08T01:13:16.859Z,30.30
2017-10-08T01:14:17.586Z,28.10
2017-10-08T01:15:17.183Z,26.00
2017-10-08T01:16:16.595Z,36.00
2017-10-08T01:17:17.163Z,25.60
2017-10-08T01:18:18.398Z,26.90
2017-10-08T01:19:39.596Z,25.20
2017-10-08T01:20:40.118Z,19.70
2017-10-08T01:22:01.871Z,28.90
2017-10-08T01:24:09.052Z,25.60
2017-10-08T01:25:09.101Z,29.60
2017-10-08T01:26:10.219Z,28.80
2017-10-08T01:27:09.836Z,34.10
2017-10-08T01:28:09.355Z,31.90
2017-10-08T01:29:10.099Z,21.40
2017-10-08T01:30:09.235Z,31.00
2017-10-08T01:31:32.351Z,20.80
2017-10-08T01:33:39.911Z,33.60
2017-10-08T01:34:40.932Z,37.00
2017-10-08T01:36:02.725Z,35.80
2017-10-08T01:37:03.094Z,27.70
2017-10-08T01:38:26.304Z,25.50
2017-10-08T01:39:51.304Z,36.60
2017-10-08T01:42:20.186Z,32.50
2017-10-08T01:43:43.105Z,38.70
2017-10-08T01:44:43.343Z,28.20
2017-10-08T01:45:43.109Z,26.60
2017-10-08T01:46:43.398Z,29.20
2017-10-08T01:48:05.934Z,28.30
2017-10-08T01:49:51.247Z,22.00
2017-10-08T01:50:51.875Z,34.60
2017-10-08T01:52:36.664Z,23.40
2017-10-08T01:53:37.455Z,28.50
2017-10-08T01:54:37.328Z,22.20
2017-10-08T01:56:00.558Z,25.30
2017-10-08T01:57:22.127Z,23.30
2017-10-08T01:58:44.912Z,27.50
2017-10-08T01:59:45.242Z,26.30
2017-10-08T02:01:07.998Z,23.30
2017-10-08T02:02:07.823Z,20.00
2017-10-08T02:03:08.096Z,22.70
2017-10-08T02:04:07.978Z,21.70
2017-10-08T02:05:31.726Z,24.60
2017-10-08T02:06:32.325Z,23.50
2017-10-08T02:07:32.210Z,28.30
2017-10-08T02:08:31.828Z,26.00
2017-10-08T02:09:31.950Z,29.00
2017-10-08T02:11:39.004Z,30.80
2017-10-08T02:13:00.689Z,20.00
2017-10-08T02:14:23.919Z,18.60
2017-10-08T02:15:24.309Z,25.50
2017-10-08T02:16:47.242Z,22.60
2017-10-08T02:17:47.751Z,30.00
2017-10-08T02:18:47.240Z,32.40
2017-10-08T02:20:32.025Z,31.30
2017-10-08T02:22:19.501Z,28.80
2017-10-08T02:24:26.029Z,18.90
2017-10-08T02:25:26.608Z,27.00
2017-10-08T02:27:11.541Z,19.80
2017-10-08T02:28:12.079Z,21.60
2017-10-08T02:29:11.257Z,25.10
2017-10-08T02:30:55.774Z,20.80
2017-10-08T02:31:56.309Z,27.10
2017-10-08T02:32:57.125Z,24.60
2017-10-08T02:34:18.557Z,26.80
2017-10-08T02:37:32.905Z,23.00
2017-10-08T02:38:34.861Z,27.00
2017-10-08T02:39:32.728Z,24.40
2017-10-08T02:40:33.389Z,22.90
2017-10-08T02:41:56.205Z,21.50
2017-10-08T02:42:56.891Z,17.70
2017-10-08T02:45:26.290Z,18.00
2017-10-08T02:46:26.994Z,25.00
2017-10-08T02:47:26.128Z,20.50
2017-10-08T02:48:26.798Z,25.10
2017-10-08T02:49:28.248Z,22.40
2017-10-08T02:51:10.526Z,20.50
2017-10-08T02:52:11.335Z,21.40
2017-10-08T02:53:56.404Z,20.90
2017-10-08T02:56:04.077Z,18.40
2017-10-08T02:57:04.408Z,17.40
2017-10-08T02:59:11.523Z,22.10
2017-10-08T03:00:12.576Z,15.60
2017-10-08T03:01:12.388Z,26.80
2017-10-08T03:02:33.887Z,19.60
2017-10-08T03:03:56.595Z,17.70
2017-10-08T03:05:19.998Z,21.70
2017-10-08T03:06:43.867Z,23.30
2017-10-08T03:08:06.675Z,17.00
2017-10-08T03:09:51.249Z,22.40
2017-10-08T03:11:16.145Z,22.20
2017-10-08T03:13:23.626Z,25.40
2017-10-08T03:14:46.078Z,16.80
2017-10-08T03:15:46.152Z,20.70
2017-10-08T03:16:46.854Z,24.40
2017-10-08T03:17:46.757Z,20.80
2017-10-08T03:19:09.332Z,20.70
2017-10-08T03:20:31.901Z,22.00
2017-10-08T03:21:32.199Z,25.70
2017-10-08T03:24:47.615Z,20.50
2017-10-08T03:26:10.206Z,24.90
2017-10-08T03:27:10.570Z,21.90
2017-10-08T03:29:18.566Z,28.20
2017-10-08T03:31:48.350Z,27.60
2017-10-08T03:33:33.413Z,24.10
2017-10-08T03:34:57.220Z,22.30
2017-10-08T03:36:19.986Z,28.40
2017-10-08T03:37:20.653Z,27.70
2017-10-08T03:38:20.547Z,29.90
2017-10-08T03:39:42.090Z,26.60
2017-10-08T03:40:42.376Z,22.80
2017-10-08T03:41:42.508Z,23.30
2017-10-08T03:43:05.655Z,24.40
2017-10-08T03:44:06.804Z,25.70
2017-10-08T03:46:34.064Z,25.50
2017-10-08T03:47:35.095Z,29.60
2017-10-08T03:48:56.622Z,21.00
2017-10-08T03:49:58.645Z,25.10
2017-10-08T03:51:19.760Z,28.50
2017-10-08T03:52:20.544Z,25.00
2017-10-08T03:53:20.011Z,27.80
2017-10-08T03:55:05.260Z,24.30
2017-10-08T03:56:50.202Z,27.20
2017-10-08T03:58:12.357Z,25.40
2017-10-08T03:59:13.429Z,19.60
2017-10-08T04:00:13.290Z,21.00
2017-10-08T04:01:12.922Z,20.70
2017-10-08T04:04:04.401Z,20.70
2017-10-08T04:06:11.320Z,28.80
2017-10-08T04:07:11.864Z,19.20
2017-10-08T04:08:11.436Z,23.60
2017-10-08T04:09:12.339Z,26.20
2017-10-08T04:10:11.773Z,22.90
2017-10-08T04:11:12.321Z,21.50
2017-10-08T04:12:34.662Z,28.30
2017-10-08T04:13:57.536Z,28.10
2017-10-08T04:15:20.413Z,23.60
2017-10-08T04:16:20.565Z,24.50
2017-10-08T04:17:43.001Z,26.10
2017-10-08T04:19:05.416Z,22.20
2017-10-08T04:20:05.705Z,26.60
2017-10-08T04:21:28.194Z,30.70
2017-10-08T04:23:13.050Z,35.80
2017-10-08T04:24:35.995Z,21.90
2017-10-08T04:25:58.985Z,23.30
2017-10-08T04:26:59.965Z,22.90
2017-10-08T04:27:59.168Z,23.40
2017-10-08T04:30:06.079Z,24.80
2017-10-08T04:31:51.182Z,31.40
2017-10-08T04:33:13.937Z,29.20
2017-10-08T04:34:14.406Z,35.30
2017-10-08T04:35:14.676Z,25.40
2017-10-08T04:36:14.410Z,30.30
2017-10-08T04:37:15.262Z,29.80
2017-10-08T04:38:15.109Z,29.80
2017-10-08T04:39:14.304Z,25.30
2017-10-08T04:40:15.009Z,22.90
2017-10-08T04:41:58.725Z,22.40
2017-10-08T04:42:58.956Z,31.00
2017-10-08T04:43:59.011Z,33.00
2017-10-08T04:44:58.785Z,27.90
2017-10-08T04:47:06.405Z,24.60
2017-10-08T04:48:06.980Z,23.40
2017-10-08T04:50:36.879Z,30.10
2017-10-08T04:52:22.519Z,20.30
2017-10-08T04:53:22.995Z,21.00
2017-10-08T04:54:23.559Z,27.30
2017-10-08T04:55:44.742Z,19.60
2017-10-08T04:57:30.669Z,24.10
2017-10-08T04:58:31.298Z,23.90
2017-10-08T04:59:53.563Z,21.80
2017-10-08T05:02:22.599Z,28.60
2017-10-08T05:03:22.776Z,28.00
2017-10-08T05:04:23.311Z,19.50
2017-10-08T05:05:25.293Z,15.90
2017-10-08T05:06:23.953Z,20.70
2017-10-08T05:08:08.222Z,31.00
2017-10-08T05:09:08.451Z,30.00
2017-10-08T05:11:39.538Z,22.90
2017-10-08T05:13:02.582Z,21.40
2017-10-08T05:15:11.547Z,28.10
2017-10-08T05:16:36.348Z,25.90
2017-10-08T05:17:36.560Z,23.30
2017-10-08T05:19:00.205Z,21.40
2017-10-08T05:21:08.047Z,25.10
2017-10-08T05:24:00.129Z,25.20
2017-10-08T05:25:00.751Z,23.60
2017-10-08T05:26:00.524Z,20.30
2017-10-08T05:27:45.431Z,19.20
2017-10-08T05:28:46.174Z,14.90
2017-10-08T05:29:45.090Z,17.90
2017-10-08T05:30:45.318Z,23.40
2017-10-08T05:31:45.955Z,24.30
2017-10-08T05:33:30.107Z,12.90
2017-10-08T05:34:30.897Z,17.30
2017-10-08T05:35:29.907Z,17.70
2017-10-08T05:36:30.039Z,19.30
2017-10-08T05:37:52.942Z,18.90
2017-10-08T05:38:53.222Z,18.90
2017-10-08T05:39:52.624Z,13.40
2017-10-08T05:40:52.897Z,16.30
2017-10-08T05:41:53.288Z,20.90
2017-10-08T05:43:38.031Z,18.90
2017-10-08T05:45:00.631Z,15.80
2017-10-08T05:46:01.083Z,22.40
2017-10-08T05:47:01.829Z,20.80
2017-10-08T05:48:01.635Z,17.70
2017-10-08T05:49:00.973Z,19.70
2017-10-08T05:50:01.627Z,31.40
2017-10-08T05:51:01.466Z,22.80
2017-10-08T05:52:00.780Z,17.70
2017-10-08T05:53:47.770Z,22.40
2017-10-08T05:55:10.642Z,25.20
2017-10-08T05:56:11.301Z,25.90
2017-10-08T05:57:56.205Z,30.00
2017-10-08T05:58:56.730Z,23.40
2017-10-08T06:00:41.750Z,24.30
2017-10-08T06:01:41.869Z,24.70
2017-10-08T06:03:04.520Z,22.30
2017-10-08T06:04:49.577Z,23.80
2017-10-08T06:05:49.827Z,25.50
2017-10-08T06:07:12.580Z,23.80
2017-10-08T06:08:12.898Z,26.20
2017-10-08T06:09:59.409Z,25.30
2017-10-08T06:11:44.151Z,38.90
2017-10-08T06:12:44.796Z,33.00
2017-10-08T06:14:06.793Z,25.30
2017-10-08T06:16:36.154Z,19.00
2017-10-08T06:17:58.534Z,15.10
2017-10-08T06:18:58.544Z,13.90
2017-10-08T06:20:43.457Z,14.00
2017-10-08T06:22:06.451Z,13.20
2017-10-08T06:23:06.675Z,10.80
2017-10-08T06:24:07.412Z,11.90
2017-10-08T06:25:06.837Z,16.30
2017-10-08T06:26:30.460Z,14.70
2017-10-08T06:27:31.148Z,12.70
2017-10-08T06:28:52.372Z,13.90
2017-10-08T06:29:52.707Z,17.20
2017-10-08T06:30:52.921Z,9.60
2017-10-08T06:32:16.086Z,6.70
2017-10-08T06:33:17.133Z,17.00
2017-10-08T06:34:16.530Z,13.20
2017-10-08T06:35:39.110Z,11.10
2017-10-08T06:36:39.263Z,9.30
2017-10-08T06:38:01.653Z,13.00
2017-10-08T06:39:25.221Z,11.20
2017-10-08T06:41:08.976Z,14.30
2017-10-08T06:42:55.083Z,10.70
2017-10-08T06:44:39.350Z,11.70
2017-10-08T06:45:40.035Z,19.60
2017-10-08T06:46:40.353Z,15.20
2017-10-08T06:47:39.787Z,12.00
2017-10-08T06:49:26.233Z,16.30
2017-10-08T06:50:48.913Z,14.00
2017-10-08T06:52:11.504Z,12.40
2017-10-08T06:53:33.878Z,16.60
2017-10-08T06:54:57.185Z,10.00
2017-10-08T06:56:19.724Z,18.60
2017-10-08T06:57:20.387Z,12.30
2017-10-08T06:58:42.014Z,7.90
2017-10-08T06:59:44.673Z,12.30
2017-10-08T07:01:04.066Z,14.30
2017-10-08T07:02:48.211Z,7.90
2017-10-08T07:04:11.556Z,11.80
2017-10-08T07:05:35.522Z,15.50
2017-10-08T07:06:36.275Z,17.50
2017-10-08T07:07:35.620Z,14.30
2017-10-08T07:11:33.860Z,28.10
2017-10-08T07:12:34.209Z,15.00
2017-10-08T07:14:17.970Z,11.20
2017-10-08T07:15:18.432Z,10.90
2017-10-08T07:16:19.166Z,15.40
2017-10-08T07:17:18.520Z,11.20
2017-10-08T07:19:03.338Z,11.80
2017-10-08T07:20:48.445Z,14.20
2017-10-08T07:21:48.960Z,14.70
2017-10-08T07:22:48.405Z,8.10
2017-10-08T07:23:49.366Z,14.70
2017-10-08T07:24:48.736Z,11.10
2017-10-08T07:25:48.151Z,10.80
2017-10-08T07:26:48.844Z,12.10
2017-10-08T07:27:48.285Z,16.10
2017-10-08T07:29:10.666Z,13.10
2017-10-08T07:30:12.731Z,11.80
2017-10-08T07:31:11.131Z,9.60
2017-10-08T07:32:11.856Z,14.50
2017-10-08T07:33:11.437Z,11.90
2017-10-08T07:34:11.056Z,10.70
2017-10-08T07:35:11.294Z,17.70
2017-10-08T07:36:10.649Z,17.80
2017-10-08T07:37:34.218Z,16.70
2017-10-08T07:40:04.828Z,18.70
2017-10-08T07:41:50.381Z,12.10
2017-10-08T07:43:13.390Z,10.30
2017-10-08T07:44:13.756Z,17.70
2017-10-08T07:45:37.200Z,10.20
2017-10-08T07:46:37.773Z,15.40
2017-10-08T07:47:59.653Z,12.70
2017-10-08T07:49:00.089Z,12.80
2017-10-08T07:49:59.638Z,20.30
2017-10-08T07:51:00.359Z,18.70
2017-10-08T07:51:59.806Z,23.10
2017-10-08T07:53:24.676Z,19.90
2017-10-08T07:54:25.142Z,22.50
2017-10-08T07:55:24.662Z,23.50
2017-10-08T07:56:25.365Z,19.40
2017-10-08T07:57:24.786Z,16.90
2017-10-08T07:58:25.270Z,16.20
2017-10-08T07:59:24.831Z,11.60
2017-10-08T08:01:31.692Z,12.10
2017-10-08T08:02:33.050Z,12.90
2017-10-08T08:03:32.775Z,12.90
2017-10-08T08:04:32.289Z,11.90
2017-10-08T08:05:31.851Z,11.70
2017-10-08T08:06:32.396Z,10.50
2017-10-08T08:07:54.033Z,18.30
2017-10-08T08:08:54.465Z,12.70
2017-10-08T08:10:17.215Z,11.90
2017-10-08T08:11:17.804Z,11.30
2017-10-08T08:12:17.600Z,12.00
2017-10-08T08:13:17.361Z,19.80
2017-10-08T08:14:18.501Z,15.60
2017-10-08T08:15:40.134Z,15.60
2017-10-08T08:18:10.194Z,8.70
2017-10-08T08:19:11.321Z,14.60
2017-10-08T08:20:11.130Z,13.20
2017-10-08T08:21:11.098Z,18.30
2017-10-08T08:22:33.427Z,13.90
2017-10-08T08:23:33.984Z,11.80
2017-10-08T08:24:33.740Z,19.00
2017-10-08T08:25:33.984Z,18.10
2017-10-08T08:26:56.860Z,16.80
2017-10-08T08:27:57.549Z,11.60
2017-10-08T08:28:57.203Z,13.40
2017-10-08T08:29:58.840Z,14.20
2017-10-08T08:30:58.002Z,21.80
2017-10-08T08:31:57.071Z,13.80
2017-10-08T08:33:19.363Z,23.10
2017-10-08T08:34:20.285Z,10.70
2017-10-08T08:36:04.645Z,15.70
2017-10-08T08:37:26.835Z,15.70
2017-10-08T08:38:52.794Z,21.60
2017-10-08T08:39:50.776Z,11.80
2017-10-08T08:42:19.671Z,14.60
2017-10-08T08:43:19.592Z,11.00
2017-10-08T08:44:20.452Z,9.90
2017-10-08T08:45:20.831Z,15.10
2017-10-08T08:46:19.728Z,13.10
2017-10-08T08:47:21.099Z,10.70
2017-10-08T08:49:08.502Z,12.40
2017-10-08T08:52:26.715Z,12.90
2017-10-08T08:53:26.607Z,18.40
2017-10-08T08:54:34.914Z,19.60
2017-10-08T08:55:36.551Z,12.80
2017-10-08T08:56:28.443Z,8.40
2017-10-08T08:57:25.989Z,17.10
2017-10-08T08:58:25.718Z,13.20
2017-10-08T08:59:26.166Z,12.10
2017-10-08T09:01:14.883Z,14.50
2017-10-08T09:02:35.586Z,12.40
2017-10-08T09:03:58.686Z,10.20
2017-10-08T09:04:57.469Z,16.50
2017-10-08T09:05:57.112Z,13.60
2017-10-08T09:06:58.348Z,13.90
2017-10-08T09:09:28.734Z,12.80
2017-10-08T09:10:50.952Z,15.30
2017-10-08T09:13:22.804Z,9.90
2017-10-08T09:14:21.675Z,9.60
2017-10-08T09:15:21.775Z,8.10
2017-10-08T09:17:52.158Z,14.70
2017-10-08T09:20:44.309Z,12.00
2017-10-08T09:21:45.210Z,18.50
2017-10-08T09:22:44.917Z,15.90
2017-10-08T09:25:37.657Z,14.10
2017-10-08T09:26:40.353Z,13.00
2017-10-08T09:28:45.798Z,9.40
2017-10-08T09:30:09.988Z,11.80
2017-10-08T09:31:31.985Z,14.10
2017-10-08T09:32:32.464Z,11.30
2017-10-08T09:33:32.694Z,11.90
2017-10-08T09:35:41.210Z,8.70
2017-10-08T09:36:42.031Z,12.50
2017-10-08T09:37:41.836Z,11.70
2017-10-08T09:39:26.152Z,9.30
2017-10-08T09:40:28.722Z,12.10
2017-10-08T09:41:26.585Z,12.80
2017-10-08T09:42:26.054Z,7.60
2017-10-08T09:43:48.506Z,9.60
2017-10-08T09:44:49.403Z,15.50
2017-10-08T09:45:48.924Z,8.70
2017-10-08T09:47:12.634Z,10.10
2017-10-08T09:48:35.583Z,11.80
2017-10-08T09:49:58.460Z,9.30
2017-10-08T09:51:00.742Z,17.20
2017-10-08T09:52:00.189Z,10.40
2017-10-08T09:53:33.320Z,4.60
2017-10-08T09:54:33.000Z,7.90
2017-10-08T09:55:33.462Z,8.10
2017-10-08T09:56:33.966Z,7.20
2017-10-08T09:57:33.975Z,13.90
2017-10-08T09:58:55.987Z,11.90
2017-10-08T10:00:43.946Z,0.00
2017-10-08T10:01:44.379Z,10.10
2017-10-08T10:02:43.355Z,17.90
2017-10-08T10:04:06.167Z,5.90
2017-10-08T10:05:07.069Z,12.40
2017-10-08T10:07:35.033Z,11.40
2017-10-08T10:10:28.603Z,11.50
2017-10-08T10:11:51.921Z,15.50
2017-10-08T10:14:00.471Z,8.00
2017-10-08T10:15:01.189Z,11.90
2017-10-08T10:16:01.187Z,11.40
2017-10-08T10:17:48.150Z,11.00
2017-10-08T10:18:48.798Z,8.70
2017-10-08T10:20:13.778Z,12.50
2017-10-08T10:21:12.678Z,9.60
2017-10-08T10:22:57.918Z,7.90
2017-10-08T10:24:21.059Z,11.50
2017-10-08T10:26:29.418Z,14.10
2017-10-08T10:27:28.680Z,8.80
2017-10-08T10:28:28.614Z,10.20
2017-10-08T10:29:28.247Z,12.00
2017-10-08T10:32:20.287Z,13.90
2017-10-08T10:33:21.596Z,14.10
2017-10-08T10:34:26.439Z,12.70
2017-10-08T10:35:20.365Z,15.80
2017-10-08T10:36:20.238Z,14.00
2017-10-08T10:37:21.237Z,15.40
2017-10-08T10:38:20.285Z,16.90
2017-10-08T10:39:21.677Z,10.60
2017-10-08T10:41:05.199Z,8.70
2017-10-08T10:42:05.903Z,8.90
2017-10-08T10:43:05.715Z,8.60
2017-10-08T10:44:50.917Z,9.60
2017-10-08T10:45:51.542Z,12.40
2017-10-08T10:47:13.840Z,13.40
2017-10-08T10:48:14.782Z,9.40
2017-10-08T10:49:15.122Z,13.90
2017-10-08T10:50:15.913Z,10.50
2017-10-08T10:51:14.656Z,9.80
2017-10-08T10:53:43.291Z,10.90
2017-10-08T10:55:52.541Z,7.20
2017-10-08T10:56:53.383Z,10.40
2017-10-08T10:57:53.291Z,9.70
2017-10-08T10:58:52.953Z,10.40
2017-10-08T11:00:15.373Z,11.70
2017-10-08T11:01:15.933Z,12.80
2017-10-08T11:02:15.855Z,10.70
2017-10-08T11:03:38.327Z,12.00
2017-10-08T11:04:38.963Z,6.10
2017-10-08T11:06:45.737Z,16.00
2017-10-08T11:07:46.508Z,5.80
2017-10-08T11:08:46.537Z,16.70
2017-10-08T11:10:31.080Z,12.70
2017-10-08T11:11:33.101Z,9.20
2017-10-08T11:15:11.316Z,9.20
2017-10-08T11:16:10.297Z,9.50
2017-10-08T11:18:17.840Z,11.80
2017-10-08T11:19:18.190Z,8.50
2017-10-08T11:20:40.387Z,10.90
2017-10-08T11:22:02.709Z,13.40
2017-10-08T11:23:25.349Z,7.60
2017-10-08T11:25:32.377Z,13.50
2017-10-08T11:26:55.380Z,6.00
2017-10-08T11:28:18.050Z,11.70
2017-10-08T11:29:18.041Z,9.70
2017-10-08T11:30:17.857Z,7.60
2017-10-08T11:31:17.633Z,9.50
2017-10-08T11:32:19.323Z,9.90
2017-10-08T11:33:18.563Z,14.10
2017-10-08T11:34:20.224Z,11.50
2017-10-08T11:35:18.219Z,13.20
2017-10-08T11:36:18.030Z,7.50
2017-10-08T11:37:18.136Z,13.80
2017-10-08T11:38:19.091Z,8.60
2017-10-08T11:39:18.004Z,9.30
2017-10-08T11:40:18.113Z,6.00
2017-10-08T11:41:18.344Z,8.10
2017-10-08T11:42:18.497Z,14.00
2017-10-08T11:43:18.794Z,8.50
2017-10-08T11:44:18.525Z,10.90
2017-10-08T11:45:18.654Z,14.70
2017-10-08T11:46:18.530Z,9.10
2017-10-08T11:47:18.602Z,14.70
2017-10-08T11:48:18.416Z,9.40
2017-10-08T11:49:19.870Z,6.30
2017-10-08T11:50:17.996Z,14.40
2017-10-08T11:51:18.328Z,10.80
2017-10-08T11:52:18.359Z,15.30
2017-10-08T11:53:19.387Z,11.40
2017-10-08T11:54:18.495Z,9.20
2017-10-08T11:55:19.529Z,12.10
2017-10-08T11:56:19.705Z,8.00
2017-10-08T11:57:17.933Z,5.80
2017-10-08T11:58:18.562Z,9.70
2017-10-08T11:59:18.430Z,6.60
2017-10-08T12:00:18.812Z,6.50
2017-10-08T12:01:18.144Z,8.70
2017-10-08T12:02:18.043Z,6.60
2017-10-08T12:03:18.137Z,8.60
2017-10-08T12:04:17.955Z,7.60
2017-10-08T12:05:17.897Z,6.50
2017-10-08T12:06:18.467Z,13.60
2017-10-08T12:07:18.469Z,7.40
2017-10-08T12:08:18.274Z,7.50
2017-10-08T12:09:18.141Z,12.70
2017-10-08T12:10:18.855Z,9.40
2017-10-08T12:11:18.527Z,8.40
2017-10-08T12:12:18.482Z,10.50
2017-10-08T12:13:18.659Z,7.60
2017-10-08T12:14:18.204Z,7.50
2017-10-08T12:15:19.096Z,6.60
2017-10-08T12:16:19.209Z,6.50
2017-10-08T12:17:19.295Z,8.50
2017-10-08T12:18:19.502Z,4.20
2017-10-08T12:19:19.871Z,6.00
2017-10-08T12:20:19.438Z,8.70
2017-10-08T12:21:20.048Z,10.10
2017-10-08T12:22:18.973Z,11.10
2017-10-08T12:23:19.549Z,9.70
2017-10-08T12:24:19.022Z,8.30
2017-10-08T12:25:18.176Z,9.20
2017-10-08T12:26:19.014Z,5.80
2017-10-08T12:27:18.567Z,6.70
2017-10-08T12:28:18.693Z,9.60
2017-10-08T12:29:18.271Z,7.70
2017-10-08T12:30:18.601Z,9.10
2017-10-08T12:31:17.860Z,8.40
2017-10-08T12:32:18.401Z,9.40
2017-10-08T12:33:18.233Z,4.70
2017-10-08T12:34:18.502Z,8.80
2017-10-08T12:35:19.072Z,10.90
2017-10-08T12:36:18.377Z,11.00
2017-10-08T12:37:20.021Z,10.30
2017-10-08T12:38:17.970Z,10.90
2017-10-08T12:39:18.176Z,7.10
2017-10-08T12:40:19.571Z,8.40
2017-10-08T12:41:18.714Z,8.80
2017-10-08T12:42:19.090Z,14.70
2017-10-08T12:43:18.892Z,7.20
2017-10-08T12:44:18.932Z,11.50
2017-10-08T12:45:18.386Z,8.10
2017-10-08T12:46:18.648Z,13.20
2017-10-08T12:47:18.790Z,9.20
2017-10-08T12:48:17.933Z,12.20
2017-10-08T12:49:18.120Z,7.80
2017-10-08T12:50:17.970Z,8.90
2017-10-08T12:51:18.841Z,5.20
2017-10-08T12:52:17.959Z,7.40
2017-10-08T12:53:18.187Z,10.10
2017-10-08T12:54:18.869Z,7.60
2017-10-08T12:55:18.277Z,11.80
2017-10-08T12:56:18.252Z,11.50
2017-10-08T12:57:19.221Z,10.20
2017-10-08T12:58:18.667Z,8.10
2017-10-08T12:59:18.786Z,13.20
2017-10-08T13:00:18.675Z,6.80
2017-10-08T13:01:19.133Z,10.80
2017-10-08T13:02:18.011Z,10.00
2017-10-08T13:03:18.779Z,8.90
2017-10-08T13:04:18.697Z,6.50
2017-10-08T13:05:19.258Z,8.00
2017-10-08T13:06:18.119Z,8.10
2017-10-08T13:07:17.861Z,7.80
2017-10-08T13:08:18.322Z,7.20
2017-10-08T13:09:18.703Z,12.80
2017-10-08T13:10:18.726Z,8.40
2017-10-08T13:11:18.554Z,10.00
2017-10-08T13:12:18.297Z,9.60
2017-10-08T13:13:18.896Z,6.90
2017-10-08T13:14:17.917Z,13.60
2017-10-08T13:15:18.007Z,11.10
2017-10-08T13:16:18.117Z,5.90
2017-10-08T13:17:18.111Z,9.40
2017-10-08T13:18:18.428Z,9.40
2017-10-08T13:19:18.321Z,6.90
2017-10-08T13:20:18.504Z,8.30
2017-10-08T13:21:18.456Z,12.00
2017-10-08T13:22:18.207Z,11.00
2017-10-08T13:23:18.484Z,14.20
2017-10-08T13:24:18.276Z,8.40
2017-10-08T13:25:18.207Z,9.60
2017-10-08T13:26:18.156Z,8.60
2017-10-08T13:27:18.205Z,7.30
2017-10-08T13:28:18.510Z,11.40
2017-10-08T13:29:19.800Z,9.30
2017-10-08T13:30:18.035Z,8.20
2017-10-08T13:31:18.134Z,11.30
2017-10-08T13:32:18.160Z,8.90
2017-10-08T13:33:19.982Z,11.90
2017-10-08T13:34:18.325Z,10.70
2017-10-08T13:35:19.049Z,6.90
2017-10-08T13:36:19.029Z,11.30
2017-10-08T13:37:18.212Z,6.60
2017-10-08T13:38:18.642Z,18.80
2017-10-08T13:39:19.475Z,6.80
2017-10-08T13:40:18.558Z,6.70
2017-10-08T13:41:18.708Z,6.00
2017-10-08T13:42:19.666Z,7.10
2017-10-08T13:43:18.783Z,8.60
2017-10-08T13:44:17.616Z,9.00
2017-10-08T13:45:18.055Z,7.00
2017-10-08T13:46:17.880Z,8.30
2017-10-08T13:47:18.005Z,7.10
2017-10-08T13:48:18.208Z,10.60
2017-10-08T13:49:18.686Z,10.00
2017-10-08T13:50:18.402Z,10.80
2017-10-08T13:51:18.667Z,15.20
2017-10-08T13:52:18.185Z,14.50
2017-10-08T13:53:19.203Z,31.30
2017-10-08T13:54:18.723Z,12.80
2017-10-08T13:55:18.530Z,14.00
2017-10-08T13:56:17.926Z,37.70
2017-10-08T13:57:17.827Z,23.30
2017-10-08T13:58:17.864Z,7.70
2017-10-08T13:59:18.750Z,16.10
2017-10-08T14:00:18.515Z,9.60
2017-10-08T14:01:18.179Z,9.40
2017-10-08T14:02:18.061Z,6.90
2017-10-08T14:03:19.999Z,7.40
2017-10-08T14:04:18.482Z,9.00
2017-10-08T14:05:18.613Z,6.00
2017-10-08T14:06:19.040Z,6.10
2017-10-08T14:07:18.036Z,5.70
2017-10-08T14:08:18.024Z,5.30
2017-10-08T14:09:18.399Z,9.90
2017-10-08T14:10:18.724Z,10.60
2017-10-08T14:11:18.558Z,8.30
2017-10-08T14:12:19.176Z,7.70
2017-10-08T14:13:18.274Z,5.30
2017-10-08T14:14:19.229Z,9.50
2017-10-08T14:15:19.098Z,9.40
2017-10-08T14:16:18.022Z,12.40
2017-10-08T14:17:18.277Z,9.00
2017-10-08T14:18:18.995Z,5.60
2017-10-08T14:19:19.031Z,7.80
2017-10-08T14:20:19.661Z,8.20
2017-10-08T14:21:19.821Z,15.40
2017-10-08T14:22:18.272Z,11.00
2017-10-08T14:23:18.835Z,12.00
2017-10-08T14:24:19.220Z,8.60
2017-10-08T14:25:18.427Z,8.60
2017-10-08T14:26:18.405Z,8.90
2017-10-08T14:27:18.549Z,11.10
2017-10-08T14:28:19.175Z,6.00
2017-10-08T14:29:18.260Z,8.20
2017-10-08T14:30:18.280Z,7.70
2017-10-08T14:31:18.989Z,12.40
2017-10-08T14:32:18.112Z,7.90
2017-10-08T14:33:18.106Z,7.40
2017-10-08T14:34:18.270Z,8.90
2017-10-08T14:35:18.534Z,6.50
2017-10-08T14:36:18.163Z,6.00
2017-10-08T14:37:18.814Z,9.10
2017-10-08T14:38:18.351Z,10.90
2017-10-08T14:39:19.305Z,8.50
2017-10-08T14:40:20.483Z,8.50
2017-10-08T14:41:18.568Z,7.40
2017-10-08T14:42:17.797Z,13.30
2017-10-08T14:43:17.804Z,9.30
2017-10-08T14:44:19.033Z,5.40
2017-10-08T14:45:18.417Z,3.70
2017-10-08T14:46:18.794Z,9.20
2017-10-08T14:47:18.517Z,8.00
2017-10-08T14:48:18.400Z,12.30
2017-10-08T14:49:17.834Z,7.10
2017-10-08T14:50:18.154Z,6.50
2017-10-08T14:51:18.046Z,7.30
2017-10-08T14:52:18.556Z,7.50
2017-10-08T14:53:18.423Z,7.20
2017-10-08T14:54:19.095Z,9.80
2017-10-08T14:55:19.889Z,10.40
2017-10-08T14:56:18.382Z,9.20
2017-10-08T14:57:18.477Z,12.60
2017-10-08T14:58:19.031Z,14.20
2017-10-08T14:59:18.680Z,8.20
2017-10-08T15:00:18.242Z,6.50
2017-10-08T15:01:18.179Z,13.60
2017-10-08T15:02:18.614Z,8.80
2017-10-08T15:03:18.299Z,6.80
2017-10-08T15:04:18.431Z,7.70
2017-10-08T15:05:19.762Z,6.50
2017-10-08T15:06:18.396Z,6.10
2017-10-08T15:07:18.228Z,11.40
2017-10-08T15:08:18.613Z,7.80
2017-10-08T15:09:17.740Z,8.40
2017-10-08T15:10:18.636Z,10.00
2017-10-08T15:11:18.253Z,6.80
2017-10-08T15:12:18.699Z,9.60
2017-10-08T15:13:18.072Z,7.50
2017-10-08T15:14:17.961Z,6.90
2017-10-08T15:15:19.174Z,9.20
2017-10-08T15:16:18.141Z,7.60
2017-10-08T15:17:18.408Z,9.50
2017-10-08T15:18:18.518Z,9.50
2017-10-08T15:19:18.335Z,10.20
2017-10-08T15:20:18.618Z,7.80
2017-10-08T15:21:18.608Z,6.70
2017-10-08T15:22:19.472Z,7.20
2017-10-08T15:23:19.270Z,8.90
2017-10-08T15:24:18.340Z,7.70
2017-10-08T15:25:19.006Z,12.40
2017-10-08T15:26:18.121Z,10.60
2017-10-08T15:27:18.147Z,8.50
2017-10-08T15:28:18.099Z,7.00
2017-10-08T15:29:18.066Z,7.70
2017-10-08T15:30:18.520Z,9.60
2017-10-08T15:31:18.540Z,9.80
2017-10-08T15:32:18.285Z,9.80
2017-10-08T15:33:18.910Z,9.70
2017-10-08T15:34:18.753Z,8.10
2017-10-08T15:35:18.095Z,9.30
2017-10-08T15:36:18.460Z,8.20
2017-10-08T15:37:18.570Z,8.20
2017-10-08T15:38:18.547Z,4.40
2017-10-08T15:39:18.264Z,10.00
2017-10-08T15:40:18.754Z,7.10
2017-10-08T15:41:18.506Z,6.30
2017-10-08T15:42:18.906Z,10.30
2017-10-08T15:43:18.046Z,6.20
2017-10-08T15:44:17.852Z,9.20